sensor_id;sensor_type;location;lat;lon;timestamp;pressure;altitude;pressure_sealevel;temperature;humidity
37792;BME280;29527;55.766;37.570;2023-09-07T00:02:18;100262.06;;;10.84;60.09
37792;BME280;29527;55.766;37.570;2023-09-07T00:04:43;100260.34;;;10.83;60.07
37792;BME280;29527;55.766;37.570;2023-09-07T00:07:09;100270.34;;;10.81;60.32
37792;BME280;29527;55.766;37.570;2023-09-07T00:09:34;100261.06;;;10.73;60.60
37792;BME280;29527;55.766;37.570;2023-09-07T00:12:00;100269.59;;;10.79;60.30
37792;BME280;29527;55.766;37.570;2023-09-07T00:14:26;100247.16;;;10.68;60.57
37792;BME280;29527;55.766;37.570;2023-09-07T00:16:51;100261.94;;;10.74;60.43
37792;BME280;29527;55.766;37.570;2023-09-07T00:19:17;100269.19;;;10.72;60.67
37792;BME280;29527;55.766;37.570;2023-09-07T00:21:42;100266.00;;;10.67;60.60
37792;BME280;29527;55.766;37.570;2023-09-07T00:24:08;100264.94;;;10.69;60.96
37792;BME280;29527;55.766;37.570;2023-09-07T00:26:34;100274.19;;;10.65;60.81
37792;BME280;29527;55.766;37.570;2023-09-07T00:29:00;100276.84;;;10.65;61.06
37792;BME280;29527;55.766;37.570;2023-09-07T00:31:26;100278.78;;;10.63;60.84
37792;BME280;29527;55.766;37.570;2023-09-07T00:33:51;100284.16;;;10.63;61.11
37792;BME280;29527;55.766;37.570;2023-09-07T00:36:17;100283.41;;;10.61;61.35
37792;BME280;29527;55.766;37.570;2023-09-07T00:38:43;100270.13;;;10.59;61.17
37792;BME280;29527;55.766;37.570;2023-09-07T00:41:09;100282.63;;;10.59;61.31
37792;BME280;29527;55.766;37.570;2023-09-07T00:43:34;100274.00;;;10.55;61.41
37792;BME280;29527;55.766;37.570;2023-09-07T00:46:00;100287.47;;;10.54;61.56
37792;BME280;29527;55.766;37.570;2023-09-07T00:48:26;100292.50;;;10.58;61.72
37792;BME280;29527;55.766;37.570;2023-09-07T00:50:52;100283.31;;;10.50;61.79
37792;BME280;29527;55.766;37.570;2023-09-07T00:53:17;100286.00;;;10.50;62.08
37792;BME280;29527;55.766;37.570;2023-09-07T00:55:44;100296.72;;;10.50;62.21
37792;BME280;29527;55.766;37.570;2023-09-07T00:58:10;100299.72;;;10.45;63.02
37792;BME280;29527;55.766;37.570;2023-09-07T01:00:37;100304.31;;;10.43;63.03
37792;BME280;29527;55.766;37.570;2023-09-07T01:03:02;100279.94;;;10.22;63.26
37792;BME280;29527;55.766;37.570;2023-09-07T01:05:46;100316.66;;;10.45;63.77
37792;BME280;29527;55.766;37.570;2023-09-07T01:08:29;100322.84;;;10.46;63.83
37792;BME280;29527;55.766;37.570;2023-09-07T01:10:57;100267.66;;;10.06;63.70
37792;BME280;29527;55.766;37.570;2023-09-07T01:13:22;100278.88;;;10.11;64.32
37792;BME280;29527;55.766;37.570;2023-09-07T01:15:48;100319.63;;;10.28;64.74
37792;BME280;29527;55.766;37.570;2023-09-07T01:18:15;100327.66;;;10.28;65.02
37792;BME280;29527;55.766;37.570;2023-09-07T01:20:41;100321.56;;;10.26;65.20
37792;BME280;29527;55.766;37.570;2023-09-07T01:23:08;100311.31;;;10.19;65.18
37792;BME280;29527;55.766;37.570;2023-09-07T01:25:34;100288.44;;;10.02;65.65
37792;BME280;29527;55.766;37.570;2023-09-07T01:28:00;100317.63;;;10.18;65.55
37792;BME280;29527;55.766;37.570;2023-09-07T01:30:27;100322.03;;;10.19;65.85
37792;BME280;29527;55.766;37.570;2023-09-07T01:32:52;100280.09;;;9.94;66.57
37792;BME280;29527;55.766;37.570;2023-09-07T01:35:18;100326.72;;;10.16;66.47
37792;BME280;29527;55.766;37.570;2023-09-07T01:37:47;100290.69;;;9.96;66.82
37792;BME280;29527;55.766;37.570;2023-09-07T01:40:13;100326.06;;;10.12;66.90
37792;BME280;29527;55.766;37.570;2023-09-07T01:42:38;100320.19;;;10.07;66.97
37792;BME280;29527;55.766;37.570;2023-09-07T01:45:05;100335.28;;;10.08;67.07
37792;BME280;29527;55.766;37.570;2023-09-07T01:47:31;100336.03;;;10.10;67.04
37792;BME280;29527;55.766;37.570;2023-09-07T01:49:56;100331.03;;;10.05;67.50
37792;BME280;29527;55.766;37.570;2023-09-07T01:52:22;100267.25;;;9.60;67.71
37792;BME280;29527;55.766;37.570;2023-09-07T01:54:47;100346.19;;;10.05;67.93
37792;BME280;29527;55.766;37.570;2023-09-07T01:57:13;100344.72;;;10.01;68.31
37792;BME280;29527;55.766;37.570;2023-09-07T01:59:38;100346.44;;;10.02;68.21
37792;BME280;29527;55.766;37.570;2023-09-07T02:02:04;100344.94;;;9.98;68.05
37792;BME280;29527;55.766;37.570;2023-09-07T02:04:29;100347.28;;;10.02;68.31
37792;BME280;29527;55.766;37.570;2023-09-07T02:06:55;100356.91;;;10.05;68.22
37792;BME280;29527;55.766;37.570;2023-09-07T02:09:20;100349.09;;;10.02;68.22
37792;BME280;29527;55.766;37.570;2023-09-07T02:11:46;100356.47;;;10.11;68.36
37792;BME280;29527;55.766;37.570;2023-09-07T02:14:12;100348.13;;;10.16;67.98
37792;BME280;29527;55.766;37.570;2023-09-07T02:16:37;100348.56;;;10.10;68.16
37792;BME280;29527;55.766;37.570;2023-09-07T02:19:04;100348.88;;;10.05;68.25
37792;BME280;29527;55.766;37.570;2023-09-07T02:21:30;100366.13;;;10.14;67.94
37792;BME280;29527;55.766;37.570;2023-09-07T02:23:56;100350.59;;;10.06;67.97
37792;BME280;29527;55.766;37.570;2023-09-07T02:26:21;100349.09;;;10.02;68.26
37792;BME280;29527;55.766;37.570;2023-09-07T02:28:47;100356.16;;;10.03;67.89
37792;BME280;29527;55.766;37.570;2023-09-07T02:31:12;100355.63;;;9.98;68.33
37792;BME280;29527;55.766;37.570;2023-09-07T02:33:38;100356.81;;;9.94;68.54
37792;BME280;29527;55.766;37.570;2023-09-07T02:36:04;100362.56;;;9.87;68.66
37792;BME280;29527;55.766;37.570;2023-09-07T02:38:29;100363.66;;;9.85;68.38
37792;BME280;29527;55.766;37.570;2023-09-07T02:40:56;100369.97;;;9.84;68.22
37792;BME280;29527;55.766;37.570;2023-09-07T02:43:21;100367.50;;;9.81;68.81
37792;BME280;29527;55.766;37.570;2023-09-07T02:45:49;100371.16;;;9.80;68.76
37792;BME280;29527;55.766;37.570;2023-09-07T02:48:15;100367.72;;;9.77;69.00
37792;BME280;29527;55.766;37.570;2023-09-07T02:50:40;100392.19;;;9.84;68.66
37792;BME280;29527;55.766;37.570;2023-09-07T02:53:06;100331.09;;;9.52;68.88
37792;BME280;29527;55.766;37.570;2023-09-07T02:55:31;100379.78;;;9.83;68.53
37792;BME280;29527;55.766;37.570;2023-09-07T02:57:57;100378.81;;;9.84;68.96
37792;BME280;29527;55.766;37.570;2023-09-07T03:00:23;100347.81;;;9.69;68.91
37792;BME280;29527;55.766;37.570;2023-09-07T03:02:49;100387.19;;;9.93;68.64
37792;BME280;29527;55.766;37.570;2023-09-07T03:05:17;100394.56;;;10.02;68.48
37792;BME280;29527;55.766;37.570;2023-09-07T03:07:45;100400.59;;;10.18;68.43
37792;BME280;29527;55.766;37.570;2023-09-07T03:10:12;100394.78;;;10.25;67.91
37792;BME280;29527;55.766;37.570;2023-09-07T03:12:37;100406.16;;;10.41;67.19
37792;BME280;29527;55.766;37.570;2023-09-07T03:15:04;100409.91;;;10.52;67.02
37792;BME280;29527;55.766;37.570;2023-09-07T03:17:32;100368.25;;;10.34;66.83
37792;BME280;29527;55.766;37.570;2023-09-07T03:19:59;100403.13;;;10.59;66.58
37792;BME280;29527;55.766;37.570;2023-09-07T03:22:25;100376.56;;;10.56;66.21
37792;BME280;29527;55.766;37.570;2023-09-07T03:24:51;100410.22;;;11.34;64.65
37792;BME280;29527;55.766;37.570;2023-09-07T03:27:17;100413.25;;;12.01;62.55
37792;BME280;29527;55.766;37.570;2023-09-07T03:29:44;100399.22;;;12.77;59.53
37792;BME280;29527;55.766;37.570;2023-09-07T03:32:10;100355.38;;;13.32;56.77
37792;BME280;29527;55.766;37.570;2023-09-07T03:34:36;100395.16;;;14.35;54.45
37792;BME280;29527;55.766;37.570;2023-09-07T03:37:02;100391.72;;;15.15;52.14
37792;BME280;29527;55.766;37.570;2023-09-07T03:39:27;100407.09;;;16.03;49.45
37792;BME280;29527;55.766;37.570;2023-09-07T03:41:54;100403.09;;;16.83;47.23
37792;BME280;29527;55.766;37.570;2023-09-07T03:44:19;100401.44;;;17.46;45.52
37792;BME280;29527;55.766;37.570;2023-09-07T03:46:45;100399.22;;;18.04;43.88
37792;BME280;29527;55.766;37.570;2023-09-07T03:49:10;100411.38;;;18.53;42.19
37792;BME280;29527;55.766;37.570;2023-09-07T03:51:36;100400.16;;;18.90;41.46
37792;BME280;29527;55.766;37.570;2023-09-07T03:54:01;100411.53;;;19.45;40.41
37792;BME280;29527;55.766;37.570;2023-09-07T03:56:27;100406.63;;;20.07;38.75
37792;BME280;29527;55.766;37.570;2023-09-07T03:58:52;100402.41;;;20.61;37.68
37792;BME280;29527;55.766;37.570;2023-09-07T04:01:18;100417.78;;;21.25;36.25
37792;BME280;29527;55.766;37.570;2023-09-07T04:03:43;100410.78;;;21.54;35.65
37792;BME280;29527;55.766;37.570;2023-09-07T04:06:09;100393.47;;;21.47;35.07
37792;BME280;29527;55.766;37.570;2023-09-07T04:08:35;100411.59;;;22.01;34.33
37792;BME280;29527;55.766;37.570;2023-09-07T04:11:04;100426.72;;;22.87;33.44
37792;BME280;29527;55.766;37.570;2023-09-07T04:13:30;100425.03;;;23.60;32.05
37792;BME280;29527;55.766;37.570;2023-09-07T04:15:55;100428.97;;;24.22;30.93
37792;BME280;29527;55.766;37.570;2023-09-07T04:18:21;100423.50;;;24.93;29.74
37792;BME280;29527;55.766;37.570;2023-09-07T04:20:46;100426.66;;;25.59;28.20
37792;BME280;29527;55.766;37.570;2023-09-07T04:23:12;100441.91;;;26.22;27.50
37792;BME280;29527;55.766;37.570;2023-09-07T04:25:38;100409.34;;;26.53;26.56
37792;BME280;29527;55.766;37.570;2023-09-07T04:28:06;100445.88;;;27.12;25.83
37792;BME280;29527;55.766;37.570;2023-09-07T04:30:33;100455.03;;;27.45;25.57
37792;BME280;29527;55.766;37.570;2023-09-07T04:33:02;100447.22;;;28.06;24.61
37792;BME280;29527;55.766;37.570;2023-09-07T04:35:32;100459.66;;;28.59;24.12
37792;BME280;29527;55.766;37.570;2023-09-07T04:37:58;100440.91;;;29.05;23.29
37792;BME280;29527;55.766;37.570;2023-09-07T04:40:24;100450.97;;;29.49;22.65
37792;BME280;29527;55.766;37.570;2023-09-07T04:42:50;100449.78;;;30.11;21.84
37792;BME280;29527;55.766;37.570;2023-09-07T04:45:16;100450.88;;;30.34;21.72
37792;BME280;29527;55.766;37.570;2023-09-07T04:47:42;100459.28;;;30.87;20.81
37792;BME280;29527;55.766;37.570;2023-09-07T04:50:08;100425.19;;;31.39;20.21
37792;BME280;29527;55.766;37.570;2023-09-07T04:52:34;100472.91;;;31.92;19.92
37792;BME280;29527;55.766;37.570;2023-09-07T04:55:00;100480.91;;;32.23;19.15
37792;BME280;29527;55.766;37.570;2023-09-07T04:57:26;100472.56;;;32.57;18.93
37792;BME280;29527;55.766;37.570;2023-09-07T04:59:51;100446.38;;;31.62;19.88
37792;BME280;29527;55.766;37.570;2023-09-07T05:02:17;100470.59;;;31.14;20.06
37792;BME280;29527;55.766;37.570;2023-09-07T05:04:43;100449.47;;;31.08;20.24
37792;BME280;29527;55.766;37.570;2023-09-07T05:07:09;100476.63;;;31.11;19.73
37792;BME280;29527;55.766;37.570;2023-09-07T05:09:35;100481.97;;;30.89;20.16
37792;BME280;29527;55.766;37.570;2023-09-07T05:12:00;100475.00;;;30.03;21.58
37792;BME280;29527;55.766;37.570;2023-09-07T05:14:26;100482.81;;;30.54;20.54
37792;BME280;29527;55.766;37.570;2023-09-07T05:16:51;100472.94;;;31.63;19.65
37792;BME280;29527;55.766;37.570;2023-09-07T05:19:18;100467.13;;;32.45;18.60
37792;BME280;29527;55.766;37.570;2023-09-07T05:21:43;100471.44;;;33.42;17.75
37792;BME280;29527;55.766;37.570;2023-09-07T05:24:09;100449.38;;;33.30;17.67
37792;BME280;29527;55.766;37.570;2023-09-07T05:26:34;100484.06;;;32.15;18.36
37792;BME280;29527;55.766;37.570;2023-09-07T05:29:00;100478.97;;;32.06;19.01
37792;BME280;29527;55.766;37.570;2023-09-07T05:31:25;100472.44;;;33.36;17.73
37792;BME280;29527;55.766;37.570;2023-09-07T05:33:52;100482.84;;;34.01;17.25
37792;BME280;29527;55.766;37.570;2023-09-07T05:36:18;100465.78;;;34.62;16.49
37792;BME280;29527;55.766;37.570;2023-09-07T05:38:43;100471.84;;;35.08;16.12
37792;BME280;29527;55.766;37.570;2023-09-07T05:41:09;100478.63;;;35.48;15.72
37792;BME280;29527;55.766;37.570;2023-09-07T05:43:34;100477.00;;;34.40;16.40
37792;BME280;29527;55.766;37.570;2023-09-07T05:46:00;100479.22;;;34.00;16.90
37792;BME280;29527;55.766;37.570;2023-09-07T05:48:25;100481.03;;;34.60;16.53
37792;BME280;29527;55.766;37.570;2023-09-07T05:50:51;100477.03;;;36.09;15.47
37792;BME280;29527;55.766;37.570;2023-09-07T05:53:18;100485.81;;;36.84;14.51
37792;BME280;29527;55.766;37.570;2023-09-07T05:55:44;100485.78;;;35.18;15.83
37792;BME280;29527;55.766;37.570;2023-09-07T05:58:10;100480.34;;;35.80;15.33
37792;BME280;29527;55.766;37.570;2023-09-07T06:00:35;100486.84;;;34.58;16.11
37792;BME280;29527;55.766;37.570;2023-09-07T06:03:01;100496.91;;;33.94;16.72
37792;BME280;29527;55.766;37.570;2023-09-07T06:05:27;100459.84;;;34.11;16.29
37792;BME280;29527;55.766;37.570;2023-09-07T06:07:53;100490.31;;;34.81;16.20
37792;BME280;29527;55.766;37.570;2023-09-07T06:10:18;100498.44;;;34.07;16.90
37792;BME280;29527;55.766;37.570;2023-09-07T06:12:45;100488.75;;;33.82;17.04
37792;BME280;29527;55.766;37.570;2023-09-07T06:15:10;100491.47;;;34.42;16.34
37792;BME280;29527;55.766;37.570;2023-09-07T06:17:36;100476.06;;;34.24;16.21
37792;BME280;29527;55.766;37.570;2023-09-07T06:20:02;100501.84;;;33.37;17.22
37792;BME280;29527;55.766;37.570;2023-09-07T06:22:30;100497.88;;;33.50;17.38
37792;BME280;29527;55.766;37.570;2023-09-07T06:24:55;100499.13;;;35.16;15.90
37792;BME280;29527;55.766;37.570;2023-09-07T06:27:21;100500.38;;;36.70;14.27
37792;BME280;29527;55.766;37.570;2023-09-07T06:29:47;100497.34;;;38.42;13.45
37792;BME280;29527;55.766;37.570;2023-09-07T06:32:12;100511.59;;;39.81;12.09
37792;BME280;29527;55.766;37.570;2023-09-07T06:34:39;100485.53;;;40.47;11.45
37792;BME280;29527;55.766;37.570;2023-09-07T06:37:05;100488.53;;;41.07;11.00
37792;BME280;29527;55.766;37.570;2023-09-07T06:39:30;100515.50;;;40.80;11.34
37792;BME280;29527;55.766;37.570;2023-09-07T06:41:56;100509.09;;;41.30;10.81
37792;BME280;29527;55.766;37.570;2023-09-07T06:44:21;100513.72;;;42.31;10.44
37792;BME280;29527;55.766;37.570;2023-09-07T06:46:47;100504.28;;;43.16;9.67
37792;BME280;29527;55.766;37.570;2023-09-07T06:49:12;100512.50;;;43.71;9.38
37792;BME280;29527;55.766;37.570;2023-09-07T06:51:38;100493.00;;;44.22;9.14
37792;BME280;29527;55.766;37.570;2023-09-07T06:54:03;100507.84;;;45.18;8.55
37792;BME280;29527;55.766;37.570;2023-09-07T06:56:29;100512.66;;;44.87;8.23
37792;BME280;29527;55.766;37.570;2023-09-07T06:58:56;100521.13;;;44.49;8.34
37792;BME280;29527;55.766;37.570;2023-09-07T07:01:22;100516.47;;;44.44;8.51
37792;BME280;29527;55.766;37.570;2023-09-07T07:03:47;100491.44;;;44.42;8.30
37792;BME280;29527;55.766;37.570;2023-09-07T07:06:14;100516.44;;;44.92;8.21
37792;BME280;29527;55.766;37.570;2023-09-07T07:08:40;100495.13;;;45.88;7.80
37792;BME280;29527;55.766;37.570;2023-09-07T07:11:05;100524.84;;;46.28;7.62
37792;BME280;29527;55.766;37.570;2023-09-07T07:13:31;100519.44;;;46.35;7.37
37792;BME280;29527;55.766;37.570;2023-09-07T07:15:56;100526.69;;;46.70;7.03
37792;BME280;29527;55.766;37.570;2023-09-07T07:18:22;100523.97;;;46.86;7.03
37792;BME280;29527;55.766;37.570;2023-09-07T07:20:48;100518.91;;;46.79;7.22
37792;BME280;29527;55.766;37.570;2023-09-07T07:23:13;100529.03;;;47.18;6.60
37792;BME280;29527;55.766;37.570;2023-09-07T07:25:39;100508.91;;;47.48;6.40
37792;BME280;29527;55.766;37.570;2023-09-07T07:28:05;100531.59;;;47.48;6.57
37792;BME280;29527;55.766;37.570;2023-09-07T07:30:35;100525.34;;;46.42;7.16
37792;BME280;29527;55.766;37.570;2023-09-07T07:33:02;100513.53;;;45.61;7.53
37792;BME280;29527;55.766;37.570;2023-09-07T07:35:32;100509.31;;;45.67;7.51
37792;BME280;29527;55.766;37.570;2023-09-07T07:37:58;100478.06;;;45.97;7.24
37792;BME280;29527;55.766;37.570;2023-09-07T07:40:23;100515.81;;;46.47;6.80
37792;BME280;29527;55.766;37.570;2023-09-07T07:42:51;100516.97;;;46.21;7.25
37792;BME280;29527;55.766;37.570;2023-09-07T07:45:17;100510.56;;;44.76;7.79
37792;BME280;29527;55.766;37.570;2023-09-07T07:47:45;100519.50;;;44.39;8.02
37792;BME280;29527;55.766;37.570;2023-09-07T07:50:11;100509.16;;;43.69;8.42
37792;BME280;29527;55.766;37.570;2023-09-07T07:52:37;100504.25;;;42.50;9.10
37792;BME280;29527;55.766;37.570;2023-09-07T07:55:03;100508.50;;;42.15;9.30
37792;BME280;29527;55.766;37.570;2023-09-07T07:57:31;100511.66;;;41.54;9.59
37792;BME280;29527;55.766;37.570;2023-09-07T07:59:57;100500.50;;;40.09;10.37
37792;BME280;29527;55.766;37.570;2023-09-07T08:02:22;100497.41;;;37.22;12.25
37792;BME280;29527;55.766;37.570;2023-09-07T08:04:48;100476.66;;;34.31;14.46
37792;BME280;29527;55.766;37.570;2023-09-07T08:07:13;100423.06;;;31.29;16.64
37792;BME280;29527;55.766;37.570;2023-09-07T08:09:39;100502.84;;;29.71;18.95
37792;BME280;29527;55.766;37.570;2023-09-07T08:12:05;100504.41;;;28.04;21.03
37792;BME280;29527;55.766;37.570;2023-09-07T08:14:32;100470.97;;;26.63;22.70
37792;BME280;29527;55.766;37.570;2023-09-07T08:16:58;100494.41;;;25.85;23.56
37792;BME280;29527;55.766;37.570;2023-09-07T08:19:24;100494.78;;;24.43;25.17
37792;BME280;29527;55.766;37.570;2023-09-07T08:21:50;100472.88;;;23.49;26.74
37792;BME280;29527;55.766;37.570;2023-09-07T08:24:16;100504.34;;;23.15;27.34
37792;BME280;29527;55.766;37.570;2023-09-07T08:26:42;100493.28;;;22.56;28.14
37792;BME280;29527;55.766;37.570;2023-09-07T08:29:09;100500.69;;;22.47;28.60
37792;BME280;29527;55.766;37.570;2023-09-07T08:31:35;100500.69;;;22.47;28.84
37792;BME280;29527;55.766;37.570;2023-09-07T08:34:01;100496.38;;;22.15;29.38
37792;BME280;29527;55.766;37.570;2023-09-07T08:36:29;100494.22;;;21.87;30.09
37792;BME280;29527;55.766;37.570;2023-09-07T08:38:58;100482.00;;;21.74;29.80
37792;BME280;29527;55.766;37.570;2023-09-07T08:41:27;100477.50;;;21.58;28.48
37792;BME280;29527;55.766;37.570;2023-09-07T08:43:54;100487.59;;;21.49;28.58
37792;BME280;29527;55.766;37.570;2023-09-07T08:46:20;100490.69;;;21.46;28.78
37792;BME280;29527;55.766;37.570;2023-09-07T08:48:49;100495.41;;;21.21;28.36
37792;BME280;29527;55.766;37.570;2023-09-07T08:51:16;100496.09;;;21.23;28.39
37792;BME280;29527;55.766;37.570;2023-09-07T08:53:43;100492.59;;;21.37;27.82
37792;BME280;29527;55.766;37.570;2023-09-07T08:56:16;100466.75;;;21.33;27.82
37792;BME280;29527;55.766;37.570;2023-09-07T08:58:42;100497.53;;;21.42;27.94
37792;BME280;29527;55.766;37.570;2023-09-07T09:01:07;100497.31;;;21.44;27.98
37792;BME280;29527;55.766;37.570;2023-09-07T09:03:36;100499.28;;;21.58;27.59
37792;BME280;29527;55.766;37.570;2023-09-07T09:06:03;100496.72;;;21.33;27.26
37792;BME280;29527;55.766;37.570;2023-09-07T09:11:14;100494.75;;;20.54;28.77
37792;BME280;29527;55.766;37.570;2023-09-07T09:13:41;100499.38;;;20.29;29.37
37792;BME280;29527;55.766;37.570;2023-09-07T09:16:08;100486.81;;;20.11;28.83
37792;BME280;29527;55.766;37.570;2023-09-07T09:18:34;100492.59;;;20.33;28.77
37792;BME280;29527;55.766;37.570;2023-09-07T09:20:59;100501.94;;;20.39;28.37
37792;BME280;29527;55.766;37.570;2023-09-07T09:23:33;100497.31;;;20.47;28.69
37792;BME280;29527;55.766;37.570;2023-09-07T09:26:00;100461.84;;;20.16;28.71
37792;BME280;29527;55.766;37.570;2023-09-07T09:28:26;100496.31;;;20.32;28.83
37792;BME280;29527;55.766;37.570;2023-09-07T09:30:53;100496.81;;;20.27;29.30
37792;BME280;29527;55.766;37.570;2023-09-07T09:33:20;100506.34;;;20.06;29.62
37792;BME280;29527;55.766;37.570;2023-09-07T09:35:47;100497.13;;;19.83;29.59
37792;BME280;29527;55.766;37.570;2023-09-07T09:38:13;100503.25;;;19.76;30.02
37792;BME280;29527;55.766;37.570;2023-09-07T09:40:38;100500.03;;;19.81;30.21
37792;BME280;29527;55.766;37.570;2023-09-07T09:43:05;100494.97;;;20.03;30.09
37792;BME280;29527;55.766;37.570;2023-09-07T09:45:31;100497.84;;;20.01;29.09
37792;BME280;29527;55.766;37.570;2023-09-07T09:47:57;100494.47;;;19.99;29.35
37792;BME280;29527;55.766;37.570;2023-09-07T09:50:25;100489.88;;;20.16;29.26
37792;BME280;29527;55.766;37.570;2023-09-07T09:52:52;100494.28;;;20.34;28.91
37792;BME280;29527;55.766;37.570;2023-09-07T09:55:18;100488.47;;;20.45;28.85
37792;BME280;29527;55.766;37.570;2023-09-07T09:57:44;100477.25;;;20.48;29.19
37792;BME280;29527;55.766;37.570;2023-09-07T10:00:10;100468.59;;;20.45;29.10
37792;BME280;29527;55.766;37.570;2023-09-07T10:02:50;100489.69;;;20.26;29.70
37792;BME280;29527;55.766;37.570;2023-09-07T10:05:18;100504.47;;;20.15;29.63
37792;BME280;29527;55.766;37.570;2023-09-07T10:07:47;100490.53;;;20.35;29.22
37792;BME280;29527;55.766;37.570;2023-09-07T10:10:13;100482.53;;;20.50;29.10
37792;BME280;29527;55.766;37.570;2023-09-07T10:12:41;100496.13;;;20.50;29.10
37792;BME280;29527;55.766;37.570;2023-09-07T10:15:19;100482.34;;;20.43;28.78
37792;BME280;29527;55.766;37.570;2023-09-07T10:17:45;100503.94;;;20.36;28.39
37792;BME280;29527;55.766;37.570;2023-09-07T10:20:11;100499.53;;;20.44;28.71
37792;BME280;29527;55.766;37.570;2023-09-07T10:22:37;100492.75;;;20.40;28.57
37792;BME280;29527;55.766;37.570;2023-09-07T10:25:03;100464.88;;;20.13;28.77
37792;BME280;29527;55.766;37.570;2023-09-07T10:27:36;100497.34;;;20.14;29.20
37792;BME280;29527;55.766;37.570;2023-09-07T10:30:09;100458.59;;;19.87;29.18
37792;BME280;29527;55.766;37.570;2023-09-07T10:32:39;100487.84;;;20.02;29.57
37792;BME280;29527;55.766;37.570;2023-09-07T10:35:16;100490.03;;;20.06;29.98
37792;BME280;29527;55.766;37.570;2023-09-07T10:37:46;100491.69;;;19.83;29.75
37792;BME280;29527;55.766;37.570;2023-09-07T10:40:12;100488.25;;;19.56;30.12
37792;BME280;29527;55.766;37.570;2023-09-07T10:42:41;100479.56;;;19.44;30.47
37792;BME280;29527;55.766;37.570;2023-09-07T10:45:11;100467.69;;;19.53;29.38
37792;BME280;29527;55.766;37.570;2023-09-07T10:47:42;100473.66;;;19.65;29.94
37792;BME280;29527;55.766;37.570;2023-09-07T10:50:10;100478.59;;;19.70;29.46
37792;BME280;29527;55.766;37.570;2023-09-07T10:52:38;100470.78;;;19.58;29.76
37792;BME280;29527;55.766;37.570;2023-09-07T10:55:04;100430.84;;;19.17;29.80
37792;BME280;29527;55.766;37.570;2023-09-07T10:57:29;100479.72;;;19.34;30.04
37792;BME280;29527;55.766;37.570;2023-09-07T10:59:55;100472.09;;;19.29;30.52
37792;BME280;29527;55.766;37.570;2023-09-07T11:02:20;100479.56;;;19.44;30.67
37792;BME280;29527;55.766;37.570;2023-09-07T11:04:46;100464.28;;;19.34;30.33
37792;BME280;29527;55.766;37.570;2023-09-07T11:07:12;100485.63;;;19.21;30.92
37792;BME280;29527;55.766;37.570;2023-09-07T11:09:42;100442.38;;;18.85;31.74
37792;BME280;29527;55.766;37.570;2023-09-07T11:12:08;100486.84;;;18.92;31.67
37792;BME280;29527;55.766;37.570;2023-09-07T11:14:34;100485.47;;;18.88;31.65
37792;BME280;29527;55.766;37.570;2023-09-07T11:17:02;100441.94;;;18.63;31.86
37792;BME280;29527;55.766;37.570;2023-09-07T11:19:32;100482.28;;;18.66;31.99
37792;BME280;29527;55.766;37.570;2023-09-07T11:21:58;100469.59;;;18.40;32.30
37792;BME280;29527;55.766;37.570;2023-09-07T11:24:24;100469.44;;;18.15;32.56
37792;BME280;29527;55.766;37.570;2023-09-07T11:26:51;100485.91;;;18.04;33.17
37792;BME280;29527;55.766;37.570;2023-09-07T11:29:17;100487.59;;;17.87;33.62
37792;BME280;29527;55.766;37.570;2023-09-07T11:31:44;100486.47;;;17.89;34.33
37792;BME280;29527;55.766;37.570;2023-09-07T11:34:10;100454.88;;;17.80;33.89
37792;BME280;29527;55.766;37.570;2023-09-07T11:36:36;100488.84;;;18.11;33.78
37792;BME280;29527;55.766;37.570;2023-09-07T11:39:03;100464.69;;;18.17;33.71
37792;BME280;29527;55.766;37.570;2023-09-07T11:41:44;100462.47;;;18.39;33.27
37792;BME280;29527;55.766;37.570;2023-09-07T11:44:11;100424.41;;;18.22;33.30
37792;BME280;29527;55.766;37.570;2023-09-07T11:46:37;100448.00;;;18.57;33.38
37792;BME280;29527;55.766;37.570;2023-09-07T11:49:03;100456.63;;;18.87;31.89
37792;BME280;29527;55.766;37.570;2023-09-07T11:51:30;100453.38;;;19.10;30.66
37792;BME280;29527;55.766;37.570;2023-09-07T11:53:56;100462.13;;;19.46;30.18
37792;BME280;29527;55.766;37.570;2023-09-07T11:56:21;100450.09;;;19.65;29.87
37792;BME280;29527;55.766;37.570;2023-09-07T11:58:47;100448.75;;;19.94;30.66
37792;BME280;29527;55.766;37.570;2023-09-07T12:01:13;100423.81;;;19.99;29.75
37792;BME280;29527;55.766;37.570;2023-09-07T12:03:42;100397.63;;;20.15;29.33
37792;BME280;29527;55.766;37.570;2023-09-07T12:06:08;100433.03;;;20.46;28.15
37792;BME280;29527;55.766;37.570;2023-09-07T12:08:34;100444.75;;;20.55;28.49
37792;BME280;29527;55.766;37.570;2023-09-07T12:11:00;100436.47;;;20.40;28.30
37792;BME280;29527;55.766;37.570;2023-09-07T12:13:26;100442.44;;;20.27;29.16
37792;BME280;29527;55.766;37.570;2023-09-07T12:15:52;100415.47;;;20.09;29.31
37792;BME280;29527;55.766;37.570;2023-09-07T12:18:17;100445.00;;;20.29;26.76
37792;BME280;29527;55.766;37.570;2023-09-07T12:20:43;100452.66;;;20.25;26.98
37792;BME280;29527;55.766;37.570;2023-09-07T12:23:10;100441.94;;;20.15;27.81
37792;BME280;29527;55.766;37.570;2023-09-07T12:25:36;100443.31;;;20.28;27.61
37792;BME280;29527;55.766;37.570;2023-09-07T12:28:02;100423.75;;;20.32;27.72
37792;BME280;29527;55.766;37.570;2023-09-07T12:30:28;100441.53;;;20.60;27.95
37792;BME280;29527;55.766;37.570;2023-09-07T12:32:54;100443.53;;;20.74;27.43
37792;BME280;29527;55.766;37.570;2023-09-07T12:35:20;100443.06;;;20.62;27.46
37792;BME280;29527;55.766;37.570;2023-09-07T12:37:46;100439.66;;;20.52;28.32
37792;BME280;29527;55.766;37.570;2023-09-07T12:40:12;100439.22;;;20.32;28.55